createdAt,value
2019-04-03T00:01:44.700Z,76.23
2019-04-03T00:05:48.279Z,79.67
2019-04-03T00:09:51.863Z,74.25
2019-04-03T00:13:55.463Z,76.00
2019-04-03T00:17:59.067Z,77.85
2019-04-03T00:22:02.668Z,68.47
2019-04-03T00:26:06.248Z,76.25
2019-04-03T00:30:11.678Z,78.33
2019-04-03T00:34:15.281Z,68.60
2019-04-03T00:38:18.963Z,70.72
2019-04-03T00:42:24.092Z,73.83
2019-04-03T00:46:27.711Z,65.33
2019-04-03T00:50:31.296Z,69.90
2019-04-03T00:54:34.895Z,62.95
2019-04-03T00:58:42.843Z,65.00
2019-04-03T01:02:46.456Z,50.87
2019-04-03T01:06:50.027Z,51.02
2019-04-03T01:10:53.669Z,53.05
2019-04-03T01:14:57.248Z,47.30
2019-04-03T01:19:00.805Z,52.05
2019-04-03T01:23:06.895Z,50.35
2019-04-03T01:27:11.177Z,43.83
2019-04-03T01:31:15.163Z,41.90
2019-04-03T01:35:18.931Z,40.52
2019-04-03T01:39:22.572Z,38.15
2019-04-03T01:43:27.853Z,37.98
2019-04-03T01:47:31.354Z,31.00
2019-04-03T01:51:34.935Z,33.48
2019-04-03T01:55:38.542Z,40.45
2019-04-03T01:59:42.141Z,45.45
2019-04-03T02:03:45.787Z,45.90
2019-04-03T02:07:49.455Z,45.00
2019-04-03T02:11:53.090Z,47.15
2019-04-03T02:15:56.716Z,44.50
2019-04-03T02:20:00.310Z,50.05
2019-04-03T02:24:03.919Z,45.23
2019-04-03T02:28:07.582Z,44.90
2019-04-03T02:32:11.177Z,32.70
2019-04-03T02:36:15.013Z,36.35
2019-04-03T02:40:18.900Z,40.43
2019-04-03T02:44:22.617Z,42.17
2019-04-03T02:48:26.203Z,40.45
2019-04-03T02:52:30.117Z,50.93
2019-04-03T02:56:33.814Z,38.15
2019-04-03T03:00:37.392Z,38.30
2019-04-03T03:04:40.996Z,41.10
2019-04-03T03:08:44.865Z,43.33
2019-04-03T03:12:48.800Z,35.65
2019-04-03T03:16:52.751Z,32.78
2019-04-03T03:20:57.442Z,34.33
2019-04-03T03:25:01.690Z,33.60
2019-04-03T03:29:16.492Z,28.60
2019-04-03T03:33:28.424Z,29.30
2019-04-03T03:37:17.127Z,31.50
2019-04-03T03:41:23.244Z,32.70
2019-04-03T03:45:28.344Z,32.67
2019-04-03T03:53:35.570Z,34.60
2019-04-03T03:57:41.280Z,42.73
2019-04-03T04:01:45.051Z,33.35
2019-04-03T04:05:48.726Z,32.60
2019-04-03T04:09:53.230Z,35.25
2019-04-03T04:13:57.024Z,31.35
2019-04-03T04:18:00.607Z,30.82
2019-04-03T04:22:04.346Z,28.83
2019-04-03T04:26:08.081Z,30.43
2019-04-03T04:30:13.291Z,32.25
2019-04-03T04:34:18.905Z,29.00
2019-04-03T04:38:22.101Z,29.30
2019-04-03T04:42:25.717Z,24.30
2019-04-03T04:46:29.502Z,24.98
2019-04-03T04:50:33.099Z,25.55
2019-04-03T04:54:36.684Z,30.97
2019-04-03T04:58:42.722Z,30.35
2019-04-03T05:02:45.816Z,25.80
2019-04-03T05:06:49.545Z,35.90
2019-04-03T05:10:53.122Z,28.30
2019-04-03T05:14:56.671Z,34.00
2019-04-03T05:19:09.786Z,34.08
2019-04-03T05:23:05.627Z,27.80
2019-04-03T05:27:09.237Z,31.07
2019-04-03T05:31:13.023Z,33.30
2019-04-03T05:35:16.635Z,28.38
2019-04-03T05:39:20.382Z,29.32
2019-04-03T05:43:23.902Z,24.10
2019-04-03T05:47:27.572Z,29.27
2019-04-03T05:51:31.397Z,28.40
2019-04-03T05:55:35.248Z,32.03
2019-04-03T05:59:38.977Z,31.87
2019-04-03T06:03:45.145Z,32.85
2019-04-03T06:07:49.624Z,26.57
2019-04-03T06:11:53.072Z,31.97
2019-04-03T06:15:56.652Z,33.77
2019-04-03T06:20:00.238Z,40.23
2019-04-03T06:24:04.028Z,44.58
2019-04-03T06:28:07.645Z,47.62
2019-04-03T06:32:11.249Z,46.88
2019-04-03T06:36:16.957Z,47.73
2019-04-03T06:40:20.052Z,55.37
2019-04-03T06:44:23.642Z,45.10
2019-04-03T06:48:27.545Z,53.42
2019-04-03T06:52:31.167Z,51.58
2019-04-03T06:56:34.767Z,48.38
2019-04-03T07:00:38.342Z,56.98
2019-04-03T07:04:42.216Z,52.88
2019-04-03T07:08:47.130Z,54.33
2019-04-03T07:12:50.720Z,49.10
2019-04-03T07:16:54.468Z,55.87
2019-04-03T07:20:58.409Z,58.17
2019-04-03T07:25:03.534Z,55.83
2019-04-03T07:29:07.219Z,51.97
2019-04-03T07:33:10.922Z,56.03
2019-04-03T07:37:15.485Z,54.35
2019-04-03T07:41:22.087Z,52.67
2019-04-03T07:45:25.070Z,58.30
2019-04-03T07:49:28.890Z,51.77
2019-04-03T07:53:32.568Z,58.58
2019-04-03T07:57:37.098Z,61.20
2019-04-03T08:01:41.783Z,55.30
2019-04-03T08:05:45.459Z,58.10
2019-04-03T08:09:49.129Z,54.53
2019-04-03T08:13:52.808Z,51.63
2019-04-03T08:17:57.585Z,55.35
2019-04-03T08:22:02.059Z,56.23
2019-04-03T08:26:06.018Z,58.73
2019-04-03T08:30:10.130Z,57.40
2019-04-03T08:34:17.086Z,68.00
2019-04-03T08:38:19.279Z,57.47
2019-04-03T08:42:23.046Z,53.60
2019-04-03T08:46:26.752Z,51.50
2019-04-03T08:50:30.342Z,37.42
2019-04-03T08:54:33.927Z,40.00
2019-04-03T08:58:37.546Z,30.88
2019-04-03T09:02:43.464Z,34.03
2019-04-03T09:06:46.664Z,31.90
2019-04-03T09:10:50.317Z,31.07
2019-04-03T09:14:56.383Z,33.30
2019-04-03T09:18:59.103Z,31.40
2019-04-03T09:23:02.729Z,32.38
2019-04-03T09:27:08.167Z,37.03
2019-04-03T09:31:11.711Z,32.33
2019-04-03T09:35:15.572Z,31.42
2019-04-03T09:39:19.175Z,29.52
2019-04-03T09:43:23.218Z,30.67
2019-04-03T09:47:27.232Z,29.93
2019-04-03T09:51:31.124Z,32.58
2019-04-03T09:55:37.281Z,27.65
2019-04-03T09:59:39.963Z,32.00
2019-04-03T10:03:43.569Z,31.20
2019-04-03T10:07:47.254Z,30.95
2019-04-03T10:11:51.961Z,34.03
2019-04-03T10:15:56.148Z,32.23
2019-04-03T10:19:59.802Z,34.43
2019-04-03T10:24:03.420Z,40.08
2019-04-03T10:28:07.008Z,35.48
2019-04-03T10:32:10.743Z,36.38
2019-04-03T10:36:17.246Z,36.53
2019-04-03T10:40:19.971Z,36.90
2019-04-03T10:44:23.632Z,32.63
2019-04-03T10:48:28.179Z,28.85
2019-04-03T10:52:32.232Z,36.47
2019-04-03T10:56:35.812Z,35.10
2019-04-03T11:00:39.516Z,30.08
2019-04-03T11:04:43.107Z,29.00
2019-04-03T11:08:46.690Z,32.85
2019-04-03T11:12:50.295Z,31.75
2019-04-03T11:16:53.879Z,31.17
2019-04-03T11:20:57.846Z,33.50
2019-04-03T11:25:01.908Z,35.28
2019-04-03T11:29:08.711Z,37.20
2019-04-03T11:33:12.869Z,35.07
2019-04-03T11:37:16.083Z,38.93
2019-04-03T11:41:21.443Z,39.23
2019-04-03T11:45:24.948Z,40.57
2019-04-03T11:49:28.561Z,37.58
2019-04-03T11:53:33.068Z,45.50
2019-04-03T11:57:37.447Z,34.83
2019-04-03T12:01:41.071Z,34.40
2019-04-03T12:05:47.162Z,34.03
2019-04-03T12:09:49.940Z,35.00
2019-04-03T12:13:53.960Z,33.48
2019-04-03T12:18:00.736Z,33.08
2019-04-03T12:22:03.201Z,35.53
2019-04-03T12:26:07.058Z,27.00
2019-04-03T12:30:11.143Z,27.73
2019-04-03T12:34:15.238Z,26.40
2019-04-03T12:38:23.815Z,31.47
2019-04-03T12:42:29.182Z,26.82
2019-04-03T12:46:41.109Z,25.80
2019-04-03T12:50:45.946Z,23.62
2019-04-03T12:54:52.804Z,24.27
2019-04-03T12:58:55.320Z,24.10
2019-04-03T13:02:58.895Z,24.77
2019-04-03T13:07:05.001Z,15.45
2019-04-03T13:11:07.764Z,17.87
2019-04-03T13:15:12.535Z,16.57
2019-04-03T13:19:16.195Z,16.42
2019-04-03T13:23:20.201Z,22.35
2019-04-03T13:27:23.808Z,17.10
2019-04-03T13:31:27.439Z,16.95
2019-04-03T13:35:31.027Z,13.53
2019-04-03T13:39:34.754Z,22.30
2019-04-03T13:43:38.501Z,16.62
2019-04-03T13:47:45.754Z,13.68
2019-04-03T13:51:47.511Z,17.30
2019-04-03T13:55:51.205Z,21.42
2019-04-03T13:59:59.556Z,18.10
2019-04-03T14:04:00.400Z,16.93
2019-04-03T14:08:06.481Z,19.17
2019-04-03T14:12:09.431Z,21.87
2019-04-03T14:16:19.764Z,16.60
2019-04-03T14:20:19.111Z,17.43
2019-04-03T14:24:22.702Z,19.57
2019-04-03T14:28:26.614Z,17.45
2019-04-03T14:32:30.204Z,14.58
2019-04-03T14:36:34.678Z,16.93
2019-04-03T14:40:38.622Z,16.40
2019-04-03T14:44:45.592Z,19.77
2019-04-03T14:48:48.484Z,16.40
2019-04-03T14:52:52.491Z,16.23
2019-04-03T14:56:56.147Z,16.67
2019-04-03T15:00:59.759Z,15.50
2019-04-03T15:05:03.405Z,14.58
2019-04-03T15:09:09.232Z,10.80
2019-04-03T15:13:14.256Z,12.15
2019-04-03T15:17:18.260Z,11.87
2019-04-03T15:21:23.795Z,14.38
2019-04-03T15:25:27.146Z,13.70
2019-04-03T15:29:30.709Z,10.60
2019-04-03T15:33:34.371Z,11.03
2019-04-03T15:37:40.109Z,14.58
2019-04-03T15:41:43.596Z,12.43
2019-04-03T15:45:47.651Z,15.68
2019-04-03T15:49:51.395Z,10.55
2019-04-03T15:53:55.077Z,11.63
2019-04-03T15:57:59.095Z,13.00
2019-04-03T16:02:02.689Z,11.30
2019-04-03T16:06:06.399Z,12.28
2019-04-03T16:10:10.593Z,15.45
2019-04-03T16:14:14.650Z,13.00
2019-04-03T16:18:20.168Z,14.73
2019-04-03T16:22:23.874Z,13.50
2019-04-03T16:26:28.140Z,18.48
2019-04-03T16:30:31.896Z,18.25
2019-04-03T16:34:35.834Z,16.07
2019-04-03T16:38:39.575Z,16.32
2019-04-03T16:42:43.335Z,20.17
2019-04-03T16:46:46.989Z,18.05
2019-04-03T16:50:50.603Z,15.58
2019-04-03T16:54:54.287Z,18.57
2019-04-03T16:59:00.812Z,15.23
2019-04-03T17:03:03.730Z,28.27
2019-04-03T17:07:07.656Z,17.40
2019-04-03T17:11:12.076Z,16.17
2019-04-03T17:15:16.793Z,16.95
2019-04-03T17:19:20.472Z,14.85
2019-04-03T17:23:24.353Z,16.30
2019-04-03T17:27:30.205Z,15.63
2019-04-03T17:31:34.163Z,19.17
2019-04-03T17:35:37.917Z,21.55
2019-04-03T17:39:41.520Z,20.70
2019-04-03T17:43:45.222Z,18.15
2019-04-03T17:47:49.734Z,11.63
2019-04-03T17:51:54.374Z,19.57
2019-04-03T17:55:57.944Z,12.15
2019-04-03T18:00:02.072Z,12.43
2019-04-03T18:04:05.845Z,10.45
2019-04-03T18:08:09.585Z,9.85
2019-04-03T18:12:13.160Z,8.28
2019-04-03T18:16:16.997Z,16.17
2019-04-03T18:20:20.828Z,15.30
2019-04-03T18:24:24.712Z,18.98
2019-04-03T18:28:28.399Z,18.52
2019-04-03T18:32:32.050Z,16.82
2019-04-03T18:36:35.783Z,11.10
2019-04-03T18:40:39.517Z,13.25
2019-04-03T18:44:43.265Z,15.80
2019-04-03T18:48:53.570Z,14.43
2019-04-03T18:52:52.618Z,17.27
2019-04-03T18:56:56.228Z,22.30
2019-04-03T19:01:01.762Z,18.37
2019-04-03T19:05:10.120Z,20.50
2019-04-03T19:09:13.533Z,22.75
2019-04-03T19:13:17.246Z,25.32
2019-04-03T19:17:20.928Z,17.23
2019-04-03T19:21:28.473Z,17.30
2019-04-03T19:25:30.173Z,20.20
2019-04-03T19:29:35.635Z,17.70
2019-04-03T19:33:39.166Z,15.77
2019-04-03T19:37:45.163Z,18.55
2019-04-03T19:41:48.292Z,19.27
2019-04-03T19:45:52.466Z,31.77
2019-04-03T19:49:59.699Z,37.60
2019-04-03T19:54:01.946Z,32.33
2019-04-03T19:58:05.752Z,32.37
2019-04-03T20:02:10.245Z,32.35
2019-04-03T20:06:14.092Z,33.05
2019-04-03T20:10:17.763Z,34.83
2019-04-03T20:14:21.672Z,36.45
2019-04-03T20:18:26.519Z,33.17
2019-04-03T20:22:30.809Z,36.07
2019-04-03T20:26:34.808Z,30.82
2019-04-03T20:30:38.889Z,28.32
2019-04-03T20:34:44.413Z,33.18
2019-04-03T20:38:47.758Z,34.77
2019-04-03T20:42:51.347Z,40.17
2019-04-03T20:46:56.050Z,40.45
2019-04-03T20:51:00.056Z,38.80
2019-04-03T20:55:04.485Z,39.95
2019-04-03T20:59:11.056Z,44.50
2019-04-03T21:03:13.562Z,51.10
2019-04-03T21:07:17.210Z,59.42
2019-04-03T21:11:20.810Z,59.13
2019-04-03T21:15:24.380Z,56.42
2019-04-03T21:19:27.963Z,57.27
2019-04-03T21:23:33.304Z,56.92
2019-04-03T21:27:39.642Z,52.80
2019-04-03T21:31:42.032Z,56.50
2019-04-03T21:35:46.452Z,56.63
2019-04-03T21:39:50.036Z,56.60
2019-04-03T21:43:55.458Z,61.02
2019-04-03T21:47:58.843Z,64.70
2019-04-03T21:52:02.480Z,64.25
2019-04-03T21:56:06.044Z,72.17
2019-04-03T22:00:14.001Z,75.78
2019-04-03T22:04:26.627Z,68.65
2019-04-03T22:08:34.652Z,72.32
2019-04-03T22:12:38.323Z,62.15
2019-04-03T22:16:51.383Z,66.65
2019-04-03T22:20:55.055Z,63.08
2019-04-03T22:24:58.626Z,66.55
2019-04-03T22:29:02.244Z,66.20
2019-04-03T22:37:19.021Z,59.33
2019-04-03T22:41:22.582Z,65.90
2019-04-03T22:45:26.154Z,62.95
2019-04-03T22:49:29.733Z,64.45
2019-04-03T22:53:33.336Z,63.00
2019-04-03T22:57:36.929Z,32.00
2019-04-03T23:01:40.533Z,69.20
2019-04-03T23:05:44.112Z,72.53
2019-04-03T23:09:47.694Z,53.92
2019-04-03T23:13:51.275Z,56.83
2019-04-03T23:17:54.883Z,56.37
2019-04-03T23:21:58.473Z,40.65
2019-04-03T23:26:02.865Z,18.23
2019-04-03T23:30:09.932Z,42.00
2019-04-03T23:34:12.377Z,28.15
2019-04-03T23:38:15.965Z,37.37
2019-04-03T23:42:19.537Z,16.60
2019-04-03T23:46:23.188Z,33.30
2019-04-03T23:50:26.800Z,34.23
2019-04-03T23:54:33.630Z,27.90
2019-04-03T23:58:35.731Z,32.98
